Time;durP1;ratioP1;P1;durP2;ratioP2;P2;SDS_P1;SDS_P2;PMS_P1;PMS_P2;Temp;Humidity;BMP_temperature;BMP_pressure;BME280_temperature;BME280_humidity;BME280_pressure;Samples;Min_cycle;Max_cycle;Signal;HPM_P1;HPM_P2
2022/09/09 00:01:00;;;;;;;7.00;6.50;;;;;;;;;;4995940;28;20145;-61
2022/09/09 00:03:39;;;;;;;6.50;6.10;;;;;;;;;;4998040;28;20041;-61
2022/09/09 00:06:18;;;;;;;6.70;6.20;;;;;;;;;;4996363;28;20468;-60
2022/09/09 00:08:51;;;;;;;6.32;5.93;;;;;;;;;;4998451;28;20077;-61
2022/09/09 00:11:26;;;;;;;6.20;5.80;;;;;;;;;;4999738;28;20091;-61
2022/09/09 00:13:54;;;;;;;6.95;6.45;;;;;;;;;;4997803;28;20121;-61
2022/09/09 00:16:27;;;;;;;6.88;6.38;;;;;;;;;;5000056;28;20038;-60
2022/09/09 00:19:24;;;;;;;7.25;6.75;;;;;;;;;;4997651;28;20046;-61
2022/09/09 00:22:19;;;;;;;6.97;6.47;;;;;;;;;;4993864;28;20138;-62
2022/09/09 00:24:51;;;;;;;6.82;6.32;;;;;;;;;;4999849;28;20133;-61
2022/09/09 00:27:27;;;;;;;7.25;6.75;;;;;;;;;;4998686;28;20190;-61
2022/09/09 00:29:57;;;;;;;7.13;6.57;;;;;;;;;;4998143;28;20050;-60
2022/09/09 00:32:27;;;;;;;6.68;6.25;;;;;;;;;;4996652;28;20093;-61
2022/09/09 00:34:57;;;;;;;7.73;7.13;;;;;;;;;;4998712;28;20587;-60
2022/09/09 00:37:25;;;;;;;6.15;5.75;;;;;;;;;;4996927;28;20364;-61
2022/09/09 00:39:54;;;;;;;6.50;6.00;;;;;;;;;;4996606;28;20037;-60
2022/09/09 00:42:23;;;;;;;6.65;6.15;;;;;;;;;;4998404;28;20040;-61
2022/09/09 00:45:25;;;;;;;7.45;6.85;;;;;;;;;;5000693;28;20041;-61
2022/09/09 00:47:52;;;;;;;6.55;6.05;;;;;;;;;;4996352;28;20048;-61
2022/09/09 00:50:49;;;;;;;7.72;7.13;;;;;;;;;;5005441;28;20026;-62
2022/09/09 00:53:33;;;;;;;6.57;6.13;;;;;;;;;;4999498;28;20060;-60
2022/09/09 00:56:01;;;;;;;7.10;6.60;;;;;;;;;;4990015;28;20023;-60
2022/09/09 00:58:27;;;;;;;6.60;6.15;;;;;;;;;;5000477;28;20046;-60
2022/09/09 01:01:11;;;;;;;6.95;6.45;;;;;;;;;;4997040;28;20026;-60
2022/09/09 01:03:45;;;;;;;6.35;5.95;;;;;;;;;;4997552;28;20148;-60
2022/09/09 01:06:27;;;;;;;6.40;6.00;;;;;;;;;;4993575;28;20030;-60
2022/09/09 01:09:12;;;;;;;7.53;7.03;;;;;;;;;;5001903;28;20533;-60
2022/09/09 01:12:03;;;;;;;7.38;6.88;;;;;;;;;;4997276;28;20057;-60
2022/09/09 01:14:33;;;;;;;6.63;6.13;;;;;;;;;;4993851;28;20037;-60
2022/09/09 01:17:17;;;;;;;6.78;6.28;;;;;;;;;;4997960;28;20376;-60
2022/09/09 01:19:42;;;;;;;6.20;5.80;;;;;;;;;;4997344;28;20125;-60
2022/09/09 01:22:40;;;;;;;6.97;6.47;;;;;;;;;;4998346;28;20129;-60
2022/09/09 01:25:08;;;;;;;6.35;5.93;;;;;;;;;;4998183;28;20043;-60
2022/09/09 01:27:35;;;;;;;7.18;6.68;;;;;;;;;;4996696;28;20034;-60
2022/09/09 01:30:04;;;;;;;6.22;5.82;;;;;;;;;;4997295;28;20034;-60
2022/09/09 01:32:40;;;;;;;7.03;6.53;;;;;;;;;;4997022;28;20460;-60
2022/09/09 01:35:12;;;;;;;7.43;6.93;;;;;;;;;;5001063;28;20121;-60
2022/09/09 01:37:37;;;;;;;7.25;6.75;;;;;;;;;;4997801;28;20026;-61
2022/09/09 01:40:03;;;;;;;7.20;6.70;;;;;;;;;;4997350;28;20106;-60
2022/09/09 01:42:28;;;;;;;7.30;6.80;;;;;;;;;;4998838;28;20125;-61
2022/09/09 01:44:55;;;;;;;7.00;6.50;;;;;;;;;;5000595;28;20439;-61
2022/09/09 01:47:20;;;;;;;8.88;8.18;;;;;;;;;;4996361;28;20056;-61
2022/09/09 01:49:45;;;;;;;7.38;6.88;;;;;;;;;;4995933;28;20835;-61
2022/09/09 01:52:11;;;;;;;7.43;6.93;;;;;;;;;;4996011;28;20030;-60
2022/09/09 01:54:36;;;;;;;6.85;6.38;;;;;;;;;;4996570;28;20042;-60
2022/09/09 01:57:15;;;;;;;7.35;6.85;;;;;;;;;;4996599;28;20062;-60
2022/09/09 02:00:05;;;;;;;8.05;7.55;;;;;;;;;;4997994;28;20029;-60
2022/09/09 02:02:56;;;;;;;7.45;6.90;;;;;;;;;;4997006;28;20022;-60
2022/09/09 02:05:38;;;;;;;;;;;;;;;;;;4998644;28;20105;-60
2022/09/09 02:08:08;;;;;;;6.63;6.13;;;;;;;;;;4998091;28;20405;-60
2022/09/09 02:10:39;;;;;;;6.90;6.40;;;;;;;;;;5002186;28;20531;-60
2022/09/09 02:13:10;;;;;;;6.93;6.43;;;;;;;;;;4998092;28;20467;-61
2022/09/09 02:15:39;;;;;;;7.40;6.90;;;;;;;;;;4996389;28;20105;-61
2022/09/09 02:18:08;;;;;;;7.65;7.15;;;;;;;;;;4997398;28;20420;-61
2022/09/09 02:20:38;;;;;;;7.72;7.07;;;;;;;;;;4996172;28;20042;-60
2022/09/09 02:23:06;;;;;;;7.45;6.95;;;;;;;;;;4997894;28;20511;-60
2022/09/09 02:25:33;;;;;;;7.72;7.22;;;;;;;;;;4994174;28;20122;-61
2022/09/09 02:27:59;;;;;;;7.90;7.30;;;;;;;;;;4994674;28;20601;-61
2022/09/09 02:30:26;;;;;;;8.00;7.40;;;;;;;;;;4997052;28;20109;-60
2022/09/09 02:32:56;;;;;;;8.07;7.57;;;;;;;;;;4995106;28;20041;-61
2022/09/09 02:35:24;;;;;;;7.57;7.07;;;;;;;;;;4997048;28;20076;-61
2022/09/09 02:37:52;;;;;;;8.65;8.07;;;;;;;;;;5000057;28;20620;-61
2022/09/09 02:40:18;;;;;;;7.72;7.22;;;;;;;;;;4991414;28;20091;-60
2022/09/09 02:42:46;;;;;;;7.68;7.18;;;;;;;;;;4999301;28;20399;-61
2022/09/09 02:45:16;;;;;;;7.93;7.43;;;;;;;;;;4994344;28;20030;-60
2022/09/09 02:47:56;;;;;;;8.55;8.05;;;;;;;;;;4993667;28;20038;-60
2022/09/09 02:50:43;;;;;;;9.45;8.50;;;;;;;;;;4994507;28;20033;-60
2022/09/09 02:53:23;;;;;;;7.97;7.47;;;;;;;;;;4995132;28;20486;-61
2022/09/09 02:55:55;;;;;;;8.73;8.15;;;;;;;;;;4996363;28;20125;-60
2022/09/09 02:58:21;;;;;;;8.15;7.65;;;;;;;;;;4994722;28;20042;-60
2022/09/09 03:00:49;;;;;;;9.00;8.40;;;;;;;;;;4996532;28;20061;-60
2022/09/09 03:03:19;;;;;;;8.07;7.57;;;;;;;;;;5000603;28;20168;-60
2022/09/09 03:05:45;;;;;;;8.67;8.10;;;;;;;;;;4994969;28;20037;-60
2022/09/09 03:08:12;;;;;;;8.90;8.30;;;;;;;;;;4994435;28;20036;-60
2022/09/09 03:10:38;;;;;;;8.50;7.90;;;;;;;;;;4993881;28;20045;-60
2022/09/09 03:13:06;;;;;;;8.45;7.82;;;;;;;;;;4994547;28;20021;-61
2022/09/09 03:15:33;;;;;;;9.32;8.73;;;;;;;;;;4994934;28;20108;-61
2022/09/09 03:17:59;;;;;;;9.45;8.75;;;;;;;;;;4991530;28;20034;-61
2022/09/09 03:20:27;;;;;;;10.32;9.60;;;;;;;;;;4995955;28;20049;-61
2022/09/09 03:22:53;;;;;;;9.10;8.50;;;;;;;;;;4994180;28;20117;-61
2022/09/09 03:25:19;;;;;;;8.95;8.35;;;;;;;;;;4994846;28;20034;-61
2022/09/09 03:27:44;;;;;;;8.68;8.07;;;;;;;;;;4995309;28;20121;-61
2022/09/09 03:30:10;;;;;;;8.05;7.55;;;;;;;;;;4995705;28;20026;-61
2022/09/09 03:32:36;;;;;;;9.70;9.10;;;;;;;;;;4990277;28;20121;-61
2022/09/09 03:35:02;;;;;;;10.02;9.32;;;;;;;;;;4980435;28;20349;-61
2022/09/09 03:37:27;;;;;;;9.15;8.55;;;;;;;;;;4998051;28;20100;-61
2022/09/09 03:39:54;;;;;;;10.15;9.48;;;;;;;;;;4998665;28;20640;-61
2022/09/09 03:42:20;;;;;;;9.68;9.07;;;;;;;;;;5000163;28;20041;-61
2022/09/09 03:44:49;;;;;;;9.20;8.60;;;;;;;;;;4996644;28;20498;-61
2022/09/09 03:47:17;;;;;;;9.45;8.85;;;;;;;;;;4997760;28;20069;-60
2022/09/09 03:49:42;;;;;;;9.23;8.63;;;;;;;;;;5000808;28;20041;-60
2022/09/09 03:52:08;;;;;;;9.65;8.95;;;;;;;;;;5000432;28;20116;-60
2022/09/09 03:54:34;;;;;;;9.88;9.27;;;;;;;;;;4997087;28;20084;-60
2022/09/09 03:57:00;;;;;;;9.00;8.43;;;;;;;;;;4999403;28;20466;-60
2022/09/09 03:59:25;;;;;;;10.68;9.90;;;;;;;;;;4997785;28;20132;-60
2022/09/09 04:01:51;;;;;;;10.02;9.43;;;;;;;;;;4999548;28;20026;-60
2022/09/09 04:04:16;;;;;;;10.23;9.52;;;;;;;;;;4996456;28;20135;-61
2022/09/09 04:06:42;;;;;;;11.43;10.73;;;;;;;;;;4999584;28;20030;-60
2022/09/09 04:09:07;;;;;;;9.95;9.35;;;;;;;;;;5000698;28;20040;-61
2022/09/09 04:11:33;;;;;;;10.07;9.48;;;;;;;;;;4998248;28;20061;-60
2022/09/09 04:13:58;;;;;;;9.90;9.30;;;;;;;;;;4999156;28;20511;-60
2022/09/09 04:16:24;;;;;;;10.35;9.75;;;;;;;;;;5000697;28;20097;-60
2022/09/09 04:18:49;;;;;;;9.38;8.77;;;;;;;;;;5000580;28;20030;-60
2022/09/09 04:21:15;;;;;;;9.05;8.48;;;;;;;;;;4999325;28;20022;-60
2022/09/09 04:23:41;;;;;;;8.52;7.97;;;;;;;;;;4997719;28;20107;-61
2022/09/09 04:26:07;;;;;;;8.52;8.00;;;;;;;;;;4997797;28;20472;-61
2022/09/09 04:28:35;;;;;;;8.82;8.23;;;;;;;;;;4999265;28;20038;-61
2022/09/09 04:31:05;;;;;;;8.63;8.02;;;;;;;;;;4999510;28;20456;-62
2022/09/09 04:33:31;;;;;;;8.45;7.85;;;;;;;;;;5000065;28;20057;-62
2022/09/09 04:35:57;;;;;;;7.20;6.70;;;;;;;;;;4999849;28;20080;-63
2022/09/09 04:38:22;;;;;;;7.13;6.63;;;;;;;;;;4999796;28;20029;-62
2022/09/09 04:40:49;;;;;;;15.35;8.52;;;;;;;;;;4999180;28;20141;-62
2022/09/09 04:43:15;;;;;;;10.07;7.05;;;;;;;;;;5000754;28;20458;-62
2022/09/09 04:45:41;;;;;;;6.82;6.32;;;;;;;;;;4997050;28;20034;-62
2022/09/09 04:48:07;;;;;;;7.60;7.10;;;;;;;;;;4999605;28;20050;-62
2022/09/09 04:50:33;;;;;;;6.88;6.38;;;;;;;;;;4997341;28;20044;-62
2022/09/09 04:53:04;;;;;;;7.80;7.30;;;;;;;;;;5000655;28;20096;-62
2022/09/09 04:55:30;;;;;;;7.10;6.60;;;;;;;;;;5002372;28;20030;-62
2022/09/09 04:57:56;;;;;;;10.73;7.50;;;;;;;;;;5001837;28;20112;-62
2022/09/09 05:00:21;;;;;;;8.27;7.78;;;;;;;;;;4999495;28;20030;-62
2022/09/09 05:02:47;;;;;;;7.47;6.97;;;;;;;;;;5000093;28;20034;-62
2022/09/09 05:05:13;;;;;;;9.77;9.07;;;;;;;;;;5002725;28;20112;-62
2022/09/09 05:07:38;;;;;;;7.78;7.28;;;;;;;;;;5004442;28;20355;-62
2022/09/09 05:10:04;;;;;;;7.35;6.85;;;;;;;;;;4997875;28;20038;-62
2022/09/09 05:12:31;;;;;;;7.18;6.70;;;;;;;;;;4999661;28;20422;-62
2022/09/09 05:14:56;;;;;;;7.75;7.25;;;;;;;;;;4997808;28;20034;-62
2022/09/09 05:17:22;;;;;;;7.15;6.65;;;;;;;;;;5001747;28;20034;-62
2022/09/09 05:19:47;;;;;;;7.32;6.82;;;;;;;;;;5003150;28;20083;-62
2022/09/09 05:22:12;;;;;;;6.38;5.97;;;;;;;;;;4998030;28;20093;-63
2022/09/09 05:24:38;;;;;;;6.53;6.05;;;;;;;;;;4999137;28;20125;-62
2022/09/09 05:27:05;;;;;;;8.73;8.13;;;;;;;;;;4997007;28;20041;-62
2022/09/09 05:29:33;;;;;;;8.30;7.70;;;;;;;;;;4996304;28;20197;-61
2022/09/09 05:31:58;;;;;;;6.78;6.32;;;;;;;;;;4994170;28;20113;-61
2022/09/09 05:34:24;;;;;;;7.10;6.60;;;;;;;;;;4996764;28;20046;-61
2022/09/09 05:36:49;;;;;;;7.43;6.93;;;;;;;;;;4996573;28;20034;-62
2022/09/09 05:39:14;;;;;;;7.20;6.70;;;;;;;;;;4992556;28;20399;-62
2022/09/09 05:41:40;;;;;;;6.82;6.32;;;;;;;;;;4991835;28;20030;-61
2022/09/09 05:44:06;;;;;;;6.80;6.30;;;;;;;;;;4996980;28;20034;-62
2022/09/09 05:46:31;;;;;;;7.05;6.55;;;;;;;;;;4996801;28;20124;-61
2022/09/09 05:48:58;;;;;;;6.90;6.40;;;;;;;;;;4998154;28;20030;-61
2022/09/09 05:51:29;;;;;;;7.22;6.72;;;;;;;;;;4997617;28;20166;-61
2022/09/09 05:53:58;;;;;;;6.70;6.20;;;;;;;;;;4998536;28;20470;-61
2022/09/09 05:56:25;;;;;;;6.28;5.88;;;;;;;;;;5006963;28;20095;-61
2022/09/09 05:58:53;;;;;;;7.30;6.80;;;;;;;;;;5000962;28;20508;-60
2022/09/09 06:01:20;;;;;;;6.47;6.07;;;;;;;;;;4999728;28;20038;-61
2022/09/09 06:03:47;;;;;;;8.93;6.93;;;;;;;;;;4997662;28;20124;-60
2022/09/09 06:06:15;;;;;;;7.18;6.68;;;;;;;;;;4996681;28;20049;-60
2022/09/09 06:08:45;;;;;;;7.63;7.03;;;;;;;;;;4994527;28;20039;-60
2022/09/09 06:11:23;;;;;;;7.85;7.30;;;;;;;;;;4999915;28;20034;-61
2022/09/09 06:13:53;;;;;;;7.55;7.05;;;;;;;;;;4998046;28;20048;-60
2022/09/09 06:16:20;;;;;;;6.97;6.47;;;;;;;;;;4997041;28;20034;-60
2022/09/09 06:18:45;;;;;;;7.50;7.00;;;;;;;;;;4999475;28;20095;-60
2022/09/09 06:21:23;;;;;;;7.47;6.97;;;;;;;;;;4996500;28;20030;-60
2022/09/09 06:23:48;;;;;;;7.40;6.90;;;;;;;;;;4996747;28;20041;-60
2022/09/09 06:26:17;;;;;;;8.93;8.25;;;;;;;;;;4996844;28;20030;-60
2022/09/09 06:28:45;;;;;;;8.23;7.63;;;;;;;;;;4995844;28;20050;-60
2022/09/09 06:31:13;;;;;;;7.80;7.30;;;;;;;;;;4995744;28;20040;-60
2022/09/09 06:33:44;;;;;;;7.82;7.32;;;;;;;;;;4996650;28;20030;-60
2022/09/09 06:36:15;;;;;;;8.57;7.97;;;;;;;;;;4995264;28;20042;-60
2022/09/09 06:38:42;;;;;;;8.27;7.78;;;;;;;;;;4993972;28;20115;-60
2022/09/09 06:41:12;;;;;;;8.75;8.15;;;;;;;;;;4996513;28;20045;-59
2022/09/09 06:43:37;;;;;;;9.25;8.65;;;;;;;;;;4995103;28;20529;-60
2022/09/09 06:46:11;;;;;;;9.93;9.32;;;;;;;;;;4999048;28;20125;-60
2022/09/09 06:48:36;;;;;;;10.50;9.85;;;;;;;;;;4995529;28;20564;-59
2022/09/09 06:51:06;;;;;;;10.23;9.63;;;;;;;;;;4994618;28;20132;-60
2022/09/09 06:53:33;;;;;;;9.40;8.80;;;;;;;;;;4997203;28;20056;-60
2022/09/09 06:56:16;;;;;;;12.25;11.45;;;;;;;;;;4996591;28;20103;-60
2022/09/09 06:58:45;;;;;;;12.23;11.52;;;;;;;;;;4997815;28;20452;-60
2022/09/09 07:01:16;;;;;;;11.40;10.70;;;;;;;;;;4994524;28;20034;-60
2022/09/09 07:03:44;;;;;;;12.48;11.77;;;;;;;;;;4997638;28;20336;-60
2022/09/09 07:06:16;;;;;;;13.45;12.65;;;;;;;;;;4993931;28;20034;-60
2022/09/09 07:08:42;;;;;;;13.98;13.18;;;;;;;;;;4995750;28;20045;-60
2022/09/09 07:11:08;;;;;;;13.60;12.80;;;;;;;;;;4997855;28;20038;-60
2022/09/09 07:13:34;;;;;;;12.82;12.10;;;;;;;;;;4994778;28;20037;-59
2022/09/09 07:16:09;;;;;;;12.52;11.82;;;;;;;;;;4994350;28;20117;-60
2022/09/09 07:18:35;;;;;;;14.05;13.25;;;;;;;;;;4995090;28;20111;-59
2022/09/09 07:21:01;;;;;;;13.10;12.30;;;;;;;;;;4997596;28;20045;-60
2022/09/09 07:23:28;;;;;;;13.73;12.93;;;;;;;;;;4998063;28;20411;-60
2022/09/09 07:25:53;;;;;;;12.15;11.45;;;;;;;;;;4995040;28;20109;-59
2022/09/09 07:28:22;;;;;;;13.18;11.85;;;;;;;;;;4991792;28;20134;-60
2022/09/09 07:30:58;;;;;;;12.20;11.50;;;;;;;;;;4994959;28;20578;-60
2022/09/09 07:33:24;;;;;;;12.77;12.07;;;;;;;;;;4996617;28;20030;-59
2022/09/09 07:35:50;;;;;;;13.23;12.43;;;;;;;;;;4997076;28;20629;-60
2022/09/09 07:38:16;;;;;;;11.95;11.25;;;;;;;;;;4995063;28;20046;-59
2022/09/09 07:40:41;;;;;;;12.02;11.32;;;;;;;;;;4996951;28;20046;-59
2022/09/09 07:43:07;;;;;;;11.68;10.98;;;;;;;;;;4996147;28;20484;-61
2022/09/09 07:45:34;;;;;;;12.45;11.75;;;;;;;;;;4994804;28;20400;-59
2022/09/09 07:47:59;;;;;;;13.20;12.40;;;;;;;;;;4996795;28;20039;-60
2022/09/09 07:50:25;;;;;;;12.73;11.82;;;;;;;;;;4993751;28;20048;-59
2022/09/09 07:52:53;;;;;;;12.45;11.65;;;;;;;;;;4994390;28;20042;-59
2022/09/09 07:55:25;;;;;;;12.45;11.73;;;;;;;;;;4994748;28;20026;-60
2022/09/09 07:57:51;;;;;;;13.00;12.25;;;;;;;;;;4994674;28;20045;-59
2022/09/09 08:00:18;;;;;;;12.35;11.65;;;;;;;;;;4998285;28;20029;-59
2022/09/09 08:02:44;;;;;;;14.45;13.65;;;;;;;;;;4995144;28;20052;-59
2022/09/09 08:05:09;;;;;;;13.82;13.02;;;;;;;;;;4994943;28;20042;-59
2022/09/09 08:07:34;;;;;;;13.60;12.75;;;;;;;;;;4996829;28;20061;-59
2022/09/09 08:10:00;;;;;;;12.32;11.52;;;;;;;;;;4997516;28;20055;-61
2022/09/09 08:12:25;;;;;;;10.57;9.98;;;;;;;;;;4994101;28;20030;-58
2022/09/09 08:14:51;;;;;;;10.25;9.65;;;;;;;;;;4995919;28;20030;-59
2022/09/09 08:17:17;;;;;;;14.63;13.48;;;;;;;;;;4995397;28;20127;-59
2022/09/09 08:19:42;;;;;;;11.35;10.65;;;;;;;;;;4993926;28;20147;-60
2022/09/09 08:22:08;;;;;;;9.77;9.18;;;;;;;;;;4994086;28;20042;-60
2022/09/09 08:24:33;;;;;;;11.00;10.30;;;;;;;;;;4999102;28;20030;-59
2022/09/09 08:26:59;;;;;;;10.35;9.75;;;;;;;;;;4997386;28;20372;-59
2022/09/09 08:29:24;;;;;;;12.30;11.60;;;;;;;;;;4999877;28;20045;-61
2022/09/09 08:31:57;;;;;;;10.63;10.00;;;;;;;;;;4998155;28;20042;-61
2022/09/09 08:34:26;;;;;;;10.82;10.18;;;;;;;;;;5001263;28;20030;-61
2022/09/09 08:36:53;;;;;;;12.33;11.53;;;;;;;;;;4996403;28;20457;-60
2022/09/09 08:39:21;;;;;;;12.23;11.52;;;;;;;;;;4998677;28;20269;-60
2022/09/09 08:41:59;;;;;;;10.52;9.90;;;;;;;;;;5006430;28;20717;-60
2022/09/09 08:44:55;;;;;;;11.48;10.77;;;;;;;;;;4998909;28;20364;-61
2022/09/09 08:47:50;;;;;;;12.10;11.30;;;;;;;;;;4996608;28;20366;-60
2022/09/09 08:50:23;;;;;;;13.30;12.52;;;;;;;;;;4996571;28;20053;-60
2022/09/09 08:53:01;;;;;;;14.68;13.70;;;;;;;;;;4996059;28;20039;-60
2022/09/09 08:55:29;;;;;;;14.20;13.32;;;;;;;;;;5000763;28;20033;-60
2022/09/09 08:58:00;;;;;;;12.45;11.75;;;;;;;;;;4995239;28;20041;-60
2022/09/09 09:00:53;;;;;;;13.07;12.30;;;;;;;;;;4996911;28;20049;-60
2022/09/09 09:03:46;;;;;;;12.25;11.55;;;;;;;;;;4997602;28;20121;-59
2022/09/09 09:06:39;;;;;;;11.70;11.00;;;;;;;;;;4998473;28;20030;-58
2022/09/09 09:09:16;;;;;;;12.15;11.32;;;;;;;;;;4996486;28;20121;-58
2022/09/09 09:12:01;;;;;;;9.73;9.13;;;;;;;;;;5000214;28;20464;-58
2022/09/09 09:14:33;;;;;;;9.57;8.98;;;;;;;;;;5000938;28;20260;-58
2022/09/09 09:17:14;;;;;;;8.68;8.13;;;;;;;;;;4998963;28;20116;-58
2022/09/09 09:19:41;;;;;;;9.02;8.43;;;;;;;;;;4996753;28;20569;-58
2022/09/09 09:22:18;;;;;;;12.85;12.05;;;;;;;;;;4998606;28;20178;-58
2022/09/09 09:25:06;;;;;;;10.27;9.68;;;;;;;;;;4998133;28;20029;-58
2022/09/09 09:27:35;;;;;;;10.45;9.75;;;;;;;;;;4999489;28;20112;-59
2022/09/09 09:30:16;;;;;;;8.63;8.13;;;;;;;;;;5004167;28;20190;-58
2022/09/09 09:32:53;;;;;;;9.70;9.10;;;;;;;;;;4999196;28;20480;-58
2022/09/09 09:35:19;;;;;;;9.00;8.40;;;;;;;;;;4997459;28;20095;-58
2022/09/09 09:37:45;;;;;;;9.65;9.05;;;;;;;;;;4996739;28;20456;-58
2022/09/09 09:40:12;;;;;;;10.68;10.05;;;;;;;;;;5000692;28;20030;-58
2022/09/09 09:42:54;;;;;;;11.32;10.63;;;;;;;;;;4997644;28;20038;-58
2022/09/09 09:45:45;;;;;;;11.80;11.10;;;;;;;;;;4996139;28;20037;-58
2022/09/09 09:48:13;;;;;;;9.20;8.60;;;;;;;;;;4998023;28;20117;-58
2022/09/09 09:50:50;;;;;;;11.07;10.40;;;;;;;;;;4996544;28;20042;-58
2022/09/09 09:53:26;;;;;;;15.02;14.15;;;;;;;;;;4998037;28;20059;-58
2022/09/09 09:56:00;;;;;;;6.05;5.65;;;;;;;;;;5001076;28;21152;-58
2022/09/09 09:58:38;;;;;;;6.68;6.18;;;;;;;;;;4998581;28;20503;-57
2022/09/09 10:01:04;;;;;;;8.57;8.02;;;;;;;;;;4997362;28;20022;-58
2022/09/09 10:03:32;;;;;;;7.93;7.35;;;;;;;;;;4998574;28;20364;-59
2022/09/09 10:05:57;;;;;;;7.78;7.28;;;;;;;;;;4996834;28;20185;-58
2022/09/09 10:08:24;;;;;;;9.27;8.68;;;;;;;;;;5002481;28;20111;-57
2022/09/09 10:11:09;;;;;;;7.10;6.60;;;;;;;;;;4999735;28;20035;-58
2022/09/09 10:14:00;;;;;;;6.97;6.47;;;;;;;;;;4998773;28;20036;-58
2022/09/09 10:16:49;;;;;;;;;;;;;;;;;;5001236;28;20511;-58
2022/09/09 10:19:33;;;;;;;6.20;5.70;;;;;;;;;;4999457;28;20008;-57
2022/09/09 10:22:01;;;;;;;7.70;7.10;;;;;;;;;;4995590;28;20517;-58
2022/09/09 10:24:44;;;;;;;10.70;10.02;;;;;;;;;;4998098;28;20129;-58
2022/09/09 10:27:18;;;;;;;6.38;5.97;;;;;;;;;;4997391;28;20064;-58
2022/09/09 10:30:09;;;;;;;6.20;5.80;;;;;;;;;;4997529;28;20038;-58
2022/09/09 10:32:45;;;;;;;6.18;5.78;;;;;;;;;;4997533;28;20027;-58
2022/09/09 10:35:25;;;;;;;5.93;5.53;;;;;;;;;;4999408;28;20031;-58
2022/09/09 10:38:15;;;;;;;6.83;6.33;;;;;;;;;;4997239;28;20036;-61
2022/09/09 10:40:53;;;;;;;6.47;6.00;;;;;;;;;;4997333;28;20066;-58
2022/09/09 10:43:50;;;;;;;7.03;6.53;;;;;;;;;;4997829;28;20033;-58
2022/09/09 10:46:22;;;;;;;6.43;6.00;;;;;;;;;;4995883;28;20526;-59
2022/09/09 10:49:24;;;;;;;6.65;6.20;;;;;;;;;;4996678;28;20034;-58
2022/09/09 10:51:58;;;;;;;6.60;6.13;;;;;;;;;;5000170;28;20117;-58
2022/09/09 10:54:36;;;;;;;6.85;6.35;;;;;;;;;;4993267;28;20563;-58
2022/09/09 10:57:10;;;;;;;8.07;7.47;;;;;;;;;;4997463;28;20120;-58
2022/09/09 10:59:47;;;;;;;6.55;6.13;;;;;;;;;;4996706;28;20062;-58
2022/09/09 11:02:26;;;;;;;8.20;7.70;;;;;;;;;;4996352;28;20029;-58
2022/09/09 11:04:58;;;;;;;11.68;10.98;;;;;;;;;;4992719;28;20503;-58
2022/09/09 11:07:38;;;;;;;11.45;10.75;;;;;;;;;;4995303;28;20547;-58
2022/09/09 11:10:15;;;;;;;13.85;13.05;;;;;;;;;;4995364;28;20025;-58
2022/09/09 11:12:45;;;;;;;12.13;11.43;;;;;;;;;;4995383;28;20033;-59
2022/09/09 11:15:36;;;;;;;13.65;12.85;;;;;;;;;;4997024;28;20485;-57
2022/09/09 11:18:04;;;;;;;17.23;16.27;;;;;;;;;;5026038;28;20041;-58
2022/09/09 11:20:31;;;;;;;17.17;16.17;;;;;;;;;;4994487;28;20563;-58
2022/09/09 11:23:04;;;;;;;19.55;18.45;;;;;;;;;;4994561;28;20042;-58
2022/09/09 11:25:39;;;;;;;20.63;19.52;;;;;;;;;;4996311;28;20116;-57
2022/09/09 11:28:44;;;;;;;21.70;20.50;;;;;;;;;;4998686;28;20516;-59
2022/09/09 11:31:49;;;;;;;22.88;21.58;;;;;;;;;;4996459;28;20100;-58
2022/09/09 11:34:34;;;;;;;22.70;21.40;;;;;;;;;;4991700;28;20034;-59
2022/09/09 11:37:05;;;;;;;25.73;24.38;;;;;;;;;;4996734;28;20711;-61
2022/09/09 11:40:08;;;;;;;29.38;27.83;;;;;;;;;;4994218;28;20030;-59
2022/09/09 11:42:33;;;;;;;27.25;25.75;;;;;;;;;;4985274;28;20042;-59
2022/09/09 11:45:11;;;;;;;25.75;24.10;;;;;;;;;;4996640;28;20038;-59
2022/09/09 11:47:36;;;;;;;29.40;27.80;;;;;;;;;;4995379;28;20709;-60
2022/09/09 11:50:27;;;;;;;27.52;26.02;;;;;;;;;;4997926;28;20061;-59
2022/09/09 11:53:05;;;;;;;22.58;21.38;;;;;;;;;;4996159;28;20595;-58
2022/09/09 11:55:33;;;;;;;26.10;24.70;;;;;;;;;;4998679;28;20054;-58
2022/09/09 11:58:14;;;;;;;23.75;22.45;;;;;;;;;;4998474;28;20419;-58
2022/09/09 12:00:45;;;;;;;22.10;20.90;;;;;;;;;;4999956;28;20080;-58
2022/09/09 12:03:44;;;;;;;23.42;22.17;;;;;;;;;;5001144;28;20030;-58
2022/09/09 12:06:26;;;;;;;19.55;18.45;;;;;;;;;;5003208;28;20647;-58
2022/09/09 12:08:56;;;;;;;22.15;20.95;;;;;;;;;;5000499;28;20037;-58
2022/09/09 12:11:26;;;;;;;;;;;;;;;;;;5000951;28;20045;-58
2022/09/09 12:13:59;;;;;;;22.70;21.50;;;;;;;;;;5001799;28;20318;-58
2022/09/09 12:16:37;;;;;;;11.73;11.02;;;;;;;;;;5002235;28;20556;-58
2022/09/09 12:19:14;;;;;;;6.72;6.25;;;;;;;;;;5001698;28;20025;-60
2022/09/09 12:22:05;;;;;;;11.23;10.55;;;;;;;;;;4998673;28;20041;-61
2022/09/09 12:24:45;;;;;;;10.57;9.77;;;;;;;;;;5001300;28;20022;-61
2022/09/09 12:27:36;;;;;;;10.18;9.57;;;;;;;;;;5003012;28;20036;-62
2022/09/09 12:30:11;;;;;;;10.43;9.82;;;;;;;;;;5000958;28;20520;-62
2022/09/09 12:32:37;;;;;;;10.85;10.05;;;;;;;;;;5001699;28;20993;-62
2022/09/09 12:35:19;;;;;;;10.63;10.02;;;;;;;;;;5002471;28;20472;-61
2022/09/09 12:38:11;;;;;;;9.68;8.88;;;;;;;;;;5000803;28;20091;-62
2022/09/09 12:40:36;;;;;;;8.55;8.05;;;;;;;;;;4998504;28;20038;-62
2022/09/09 12:43:17;;;;;;;7.13;6.63;;;;;;;;;;5000548;28;20045;-62
2022/09/09 12:45:45;;;;;;;6.97;6.47;;;;;;;;;;4999596;28;20456;-64
2022/09/09 12:48:15;;;;;;;10.38;9.57;;;;;;;;;;4999306;28;20041;-61
2022/09/09 12:50:46;;;;;;;;;;;;;;;;;;5001135;28;20662;-62
2022/09/09 12:53:34;;;;;;;6.65;6.15;;;;;;;;;;4997729;28;19913;-61
2022/09/09 12:56:08;;;;;;;9.48;8.88;;;;;;;;;;4997745;28;20061;-62
2022/09/09 12:58:35;;;;;;;11.77;11.07;;;;;;;;;;4997893;28;20686;-62
2022/09/09 13:01:04;;;;;;;8.15;7.65;;;;;;;;;;4994254;28;20042;-62
2022/09/09 13:03:31;;;;;;;9.55;8.95;;;;;;;;;;5000047;28;20018;-62
2022/09/09 13:06:11;;;;;;;7.40;6.90;;;;;;;;;;4998278;28;20034;-62
2022/09/09 13:08:37;;;;;;;7.07;6.57;;;;;;;;;;4998979;28;20127;-62
2022/09/09 13:11:10;;;;;;;7.47;6.97;;;;;;;;;;4999501;28;20029;-62
2022/09/09 13:13:41;;;;;;;5.95;5.55;;;;;;;;;;5006821;28;20022;-62
2022/09/09 13:16:20;;;;;;;5.55;5.15;;;;;;;;;;4998588;28;20096;-60
2022/09/09 13:18:45;;;;;;;5.82;5.43;;;;;;;;;;4998077;28;20053;-62
2022/09/09 13:21:11;;;;;;;5.68;5.28;;;;;;;;;;4997343;28;20222;-62
2022/09/09 13:23:38;;;;;;;5.40;5.00;;;;;;;;;;4997031;28;20645;-60
2022/09/09 13:26:18;;;;;;;5.95;5.55;;;;;;;;;;4999141;28;20125;-62
2022/09/09 13:28:46;;;;;;;5.20;4.80;;;;;;;;;;4995571;28;20030;-62
2022/09/09 13:31:28;;;;;;;5.30;4.90;;;;;;;;;;4996712;28;20031;-62
2022/09/09 13:33:54;;;;;;;5.00;4.60;;;;;;;;;;4998717;28;20051;-62
2022/09/09 13:36:34;;;;;;;6.00;5.60;;;;;;;;;;4998908;28;20117;-61
2022/09/09 13:39:02;;;;;;;6.35;5.95;;;;;;;;;;5001137;28;20034;-62
2022/09/09 13:41:35;;;;;;;5.40;5.00;;;;;;;;;;4997044;28;20113;-62
2022/09/09 13:44:03;;;;;;;5.93;5.53;;;;;;;;;;4999905;28;20026;-63
2022/09/09 13:46:41;;;;;;;6.20;5.80;;;;;;;;;;5003133;28;20042;-63
2022/09/09 13:49:08;;;;;;;6.68;6.20;;;;;;;;;;5013855;28;20144;-63
2022/09/09 13:51:46;;;;;;;5.53;5.13;;;;;;;;;;4998703;28;20034;-65
2022/09/09 13:54:14;;;;;;;5.75;5.35;;;;;;;;;;4999843;28;20049;-63
2022/09/09 13:56:41;;;;;;;6.20;5.80;;;;;;;;;;4993518;28;20060;-62
2022/09/09 13:59:12;;;;;;;6.68;6.20;;;;;;;;;;4994006;28;20026;-63
2022/09/09 14:01:37;;;;;;;5.97;5.57;;;;;;;;;;4995869;28;20119;-64
2022/09/09 14:04:05;;;;;;;5.95;5.55;;;;;;;;;;4998919;28;20025;-63
2022/09/09 14:06:31;;;;;;;6.95;6.35;;;;;;;;;;4995345;28;20033;-64
2022/09/09 14:08:57;;;;;;;7.05;6.55;;;;;;;;;;4995585;28;20503;-64
2022/09/09 14:11:22;;;;;;;6.68;6.05;;;;;;;;;;4995537;28;20094;-64
2022/09/09 14:13:49;;;;;;;5.70;5.30;;;;;;;;;;4999227;28;20080;-63
2022/09/09 14:16:17;;;;;;;6.28;5.88;;;;;;;;;;5000971;28;20037;-64
2022/09/09 14:18:43;;;;;;;8.48;7.90;;;;;;;;;;4996907;28;20369;-62
2022/09/09 14:21:09;;;;;;;7.70;7.20;;;;;;;;;;4994590;28;20121;-63
2022/09/09 14:23:34;;;;;;;5.43;5.03;;;;;;;;;;4998623;28;20116;-62
2022/09/09 14:26:00;;;;;;;7.00;6.50;;;;;;;;;;4997971;28;20026;-62
2022/09/09 14:28:25;;;;;;;5.30;4.90;;;;;;;;;;4994288;28;20129;-62
2022/09/09 14:30:50;;;;;;;9.60;9.00;;;;;;;;;;4995605;28;20045;-62
2022/09/09 14:33:17;;;;;;;6.35;5.90;;;;;;;;;;4998131;28;20057;-62
2022/09/09 14:35:43;;;;;;;9.43;8.82;;;;;;;;;;4996754;28;20500;-62
2022/09/09 14:38:09;;;;;;;9.63;9.02;;;;;;;;;;4997164;28;20464;-62
2022/09/09 14:40:36;;;;;;;9.32;8.73;;;;;;;;;;4996626;28;20069;-62
2022/09/09 14:43:02;;;;;;;6.72;6.22;;;;;;;;;;4996490;28;20065;-61
2022/09/09 14:45:28;;;;;;;6.70;6.20;;;;;;;;;;4994012;28;20454;-63
2022/09/09 14:47:53;;;;;;;6.40;6.00;;;;;;;;;;4994972;28;20041;-62
2022/09/09 14:50:20;;;;;;;6.28;5.85;;;;;;;;;;4998969;28;20026;-62
2022/09/09 14:52:46;;;;;;;5.50;5.10;;;;;;;;;;4994838;28;20083;-63
2022/09/09 14:55:11;;;;;;;6.55;6.13;;;;;;;;;;4996542;28;20026;-61
2022/09/09 14:57:38;;;;;;;5.70;5.30;;;;;;;;;;4996221;28;20503;-62
2022/09/09 15:00:05;;;;;;;6.53;5.93;;;;;;;;;;4996141;28;20026;-62
2022/09/09 15:02:31;;;;;;;6.93;6.32;;;;;;;;;;4993700;28;20034;-63